createdAt,value
2023-02-18T00:01:29.654Z,101792.03
2023-02-18T00:03:57.677Z,101797.31
2023-02-18T00:06:28.261Z,101799.28
2023-02-18T00:08:58.706Z,101803.72
2023-02-18T00:11:26.036Z,101808.03
2023-02-18T00:13:55.512Z,101798.31
2023-02-18T00:16:26.395Z,101793.81
2023-02-18T00:18:57.149Z,101791.03
2023-02-18T00:21:24.443Z,101793.53
2023-02-18T00:23:51.615Z,101796.81
2023-02-18T00:26:20.118Z,101797.34
2023-02-18T00:28:48.837Z,101795.69
2023-02-18T00:31:19.415Z,101804.25
2023-02-18T00:33:47.954Z,101805.63
2023-02-18T00:36:19.015Z,101814.19
2023-02-18T00:38:47.643Z,101815.53
2023-02-18T00:41:15.612Z,101824.63
2023-02-18T00:43:43.769Z,101815.41
2023-02-18T00:46:11.994Z,101809.94
2023-02-18T00:48:39.430Z,101807.00
2023-02-18T00:51:08.606Z,101806.69
2023-02-18T00:53:36.382Z,101804.38
2023-02-18T00:56:04.643Z,101808.34
2023-02-18T00:58:32.011Z,101800.13
2023-02-18T01:00:58.932Z,101792.84
2023-02-18T01:03:26.561Z,101798.63
2023-02-18T01:05:53.914Z,101798.16
2023-02-18T01:08:23.162Z,101792.38
2023-02-18T01:10:54.664Z,101789.56
2023-02-18T01:13:22.119Z,101777.34
2023-02-18T01:15:49.532Z,101780.66
2023-02-18T01:18:17.308Z,101767.28
2023-02-18T01:20:45.344Z,101778.69
2023-02-18T01:23:14.046Z,101777.53
2023-02-18T01:25:42.808Z,101778.00
2023-02-18T01:28:12.260Z,101776.88
2023-02-18T01:30:39.629Z,101761.66
2023-02-18T01:33:07.115Z,101767.78
2023-02-18T01:35:34.775Z,101760.19
2023-02-18T01:38:02.598Z,101769.44
2023-02-18T01:40:30.282Z,101759.19
2023-02-18T01:42:58.561Z,101763.66
2023-02-18T01:46:03.929Z,101749.59
2023-02-18T01:48:39.636Z,101740.69
2023-02-18T01:51:13.517Z,101739.88
2023-02-18T01:53:49.926Z,101748.63
2023-02-18T01:56:25.572Z,101747.63
2023-02-18T01:58:59.818Z,101742.00
2023-02-18T02:01:27.854Z,101745.31
2023-02-18T02:03:55.778Z,101745.31
2023-02-18T02:06:25.094Z,101752.25
2023-02-18T02:08:57.394Z,101756.53
2023-02-18T02:11:41.326Z,101760.00
2023-02-18T02:14:25.309Z,101757.19
2023-02-18T02:17:03.378Z,101759.84
2023-02-18T02:20:24.977Z,101753.09
2023-02-18T02:23:30.351Z,101754.56
2023-02-18T02:26:43.968Z,101744.69
2023-02-18T02:29:51.556Z,101747.97
2023-02-18T02:33:00.014Z,101736.56
2023-02-18T02:35:34.474Z,101730.78
2023-02-18T02:38:08.208Z,101736.72
2023-02-18T02:40:46.236Z,101743.34
2023-02-18T02:43:25.595Z,101743.34
2023-02-18T02:46:00.443Z,101733.59
2023-02-18T02:48:42.772Z,101735.25
2023-02-18T02:51:18.541Z,101719.06
2023-02-18T02:53:45.439Z,101709.00
2023-02-18T02:56:17.954Z,101703.72
2023-02-18T02:58:50.640Z,101704.38
2023-02-18T03:01:35.423Z,101690.50
2023-02-18T03:04:27.690Z,101693.16
2023-02-18T03:07:39.502Z,101681.75
2023-02-18T03:10:30.589Z,101687.53
2023-02-18T03:13:09.842Z,101683.75
2023-02-18T03:15:46.394Z,101685.22
2023-02-18T03:18:23.071Z,101684.88
2023-02-18T03:20:57.066Z,101677.63
2023-02-18T03:23:32.629Z,101670.34
2023-02-18T03:26:03.417Z,101664.72
2023-02-18T03:28:32.870Z,101664.72
2023-02-18T03:31:06.975Z,101660.88
2023-02-18T03:33:41.957Z,101652.81
2023-02-18T03:36:10.248Z,101667.31
2023-02-18T03:38:45.788Z,101663.69
2023-02-18T03:41:13.009Z,101667.00
2023-02-18T03:43:41.172Z,101659.06
2023-02-18T03:46:08.619Z,101653.59
2023-02-18T03:48:35.748Z,101643.66
2023-02-18T03:51:02.739Z,101653.06
2023-02-18T03:53:29.605Z,101648.28
2023-02-18T03:55:57.952Z,101648.94
2023-02-18T03:58:24.907Z,101640.81
2023-02-18T04:00:51.868Z,101648.59
2023-02-18T04:03:18.896Z,101651.06
2023-02-18T04:05:45.854Z,101644.16
2023-02-18T04:08:12.738Z,101647.44
2023-02-18T04:10:39.696Z,101644.59
2023-02-18T04:13:08.160Z,101632.88
2023-02-18T04:15:35.214Z,101633.69
2023-02-18T04:18:02.257Z,101636.16
2023-02-18T04:20:29.717Z,101628.88
2023-02-18T04:22:56.633Z,101627.91
2023-02-18T04:25:23.548Z,101619.31
2023-02-18T04:27:50.494Z,101613.41
2023-02-18T04:30:19.333Z,101609.66
2023-02-18T04:32:46.500Z,101594.94
2023-02-18T04:35:13.466Z,101592.97
2023-02-18T04:37:40.516Z,101583.41
2023-02-18T04:40:09.013Z,101585.88
2023-02-18T04:42:36.355Z,101581.41
2023-02-18T04:45:03.776Z,101572.53
2023-02-18T04:47:32.155Z,101572.38
2023-02-18T04:49:59.258Z,101568.25
2023-02-18T04:52:26.349Z,101578.00
2023-02-18T04:54:53.321Z,101566.59
2023-02-18T04:57:20.240Z,101574.53
2023-02-18T04:59:47.112Z,101583.44
2023-02-18T05:02:14.035Z,101569.75
2023-02-18T05:04:42.268Z,101556.34
2023-02-18T05:07:09.200Z,101558.81
2023-02-18T05:09:36.211Z,101560.28
2023-02-18T05:12:03.633Z,101554.84
2023-02-18T05:14:30.550Z,101542.28
2023-02-18T05:16:57.502Z,101538.63
2023-02-18T05:19:24.560Z,101530.03
2023-02-18T05:21:52.904Z,101537.13
2023-02-18T05:24:19.794Z,101531.22
2023-02-18T05:26:46.691Z,101527.91
2023-02-18T05:29:13.623Z,101522.97
2023-02-18T05:31:40.765Z,101518.69
2023-02-18T05:34:07.920Z,101513.56
2023-02-18T05:36:35.070Z,101511.09
2023-02-18T05:39:03.891Z,101507.47
2023-02-18T05:41:31.043Z,101491.59
2023-02-18T05:44:16.513Z,101490.59
2023-02-18T05:46:43.471Z,101484.34
2023-02-18T05:49:10.502Z,101480.06
2023-02-18T05:51:37.524Z,101467.06
2023-02-18T05:54:06.088Z,101457.53
2023-02-18T05:56:33.053Z,101449.63
2023-02-18T05:59:00.472Z,101459.34
2023-02-18T06:01:41.805Z,101451.16
2023-02-18T06:04:09.116Z,101435.97
2023-02-18T06:06:36.250Z,101430.69
2023-02-18T06:09:06.454Z,101427.41
2023-02-18T06:11:34.440Z,101425.75
2023-02-18T06:14:01.674Z,101416.34
2023-02-18T06:16:29.346Z,101416.34
2023-02-18T06:18:56.368Z,101402.16
2023-02-18T06:21:23.937Z,101406.28
2023-02-18T06:23:51.121Z,101399.34
2023-02-18T06:26:19.706Z,101384.66
2023-02-18T06:28:46.627Z,101385.47
2023-02-18T06:31:13.826Z,101381.53
2023-02-18T06:33:40.852Z,101371.59
2023-02-18T06:36:11.955Z,101378.81
2023-02-18T06:38:41.001Z,101363.09
2023-02-18T06:41:09.356Z,101360.44
2023-02-18T06:43:38.357Z,101356.94
2023-02-18T06:46:06.131Z,101366.78
2023-02-18T06:48:34.020Z,101355.53
2023-02-18T06:51:01.037Z,101343.44
2023-02-18T06:53:28.148Z,101335.38
2023-02-18T06:55:55.096Z,101328.41
2023-02-18T06:58:23.218Z,101335.38
2023-02-18T07:00:51.688Z,101326.78
2023-02-18T07:03:18.802Z,101318.16
2023-02-18T07:05:45.766Z,101301.50
2023-02-18T07:08:13.181Z,101295.09
2023-02-18T07:10:40.426Z,101293.97
2023-02-18T07:13:07.384Z,101290.88
2023-02-18T07:15:34.350Z,101278.84
2023-02-18T07:18:02.771Z,101254.41
2023-02-18T07:20:30.174Z,101249.94
2023-02-18T07:22:57.160Z,101240.38
2023-02-18T07:25:24.557Z,101222.53
2023-02-18T07:27:51.856Z,101224.97
2023-02-18T07:30:19.480Z,101226.53
2023-02-18T07:32:46.379Z,101220.97
2023-02-18T07:35:17.282Z,101219.69
2023-02-18T07:37:45.571Z,101211.47
2023-02-18T07:40:15.166Z,101210.16
2023-02-18T07:42:42.196Z,101195.47
2023-02-18T07:45:10.452Z,101194.66
2023-02-18T07:47:37.578Z,101181.28
2023-02-18T07:50:06.444Z,101180.09
2023-02-18T07:52:34.729Z,101180.09
2023-02-18T07:55:01.878Z,101177.47
2023-02-18T07:57:28.819Z,101174.81
2023-02-18T07:59:55.759Z,101172.81
2023-02-18T08:02:24.814Z,101162.97
2023-02-18T08:04:52.291Z,101151.41
2023-02-18T08:07:22.789Z,101148.06
2023-02-18T08:09:51.197Z,101142.41
2023-02-18T08:12:18.493Z,101142.88
2023-02-18T08:14:45.854Z,101143.00
2023-02-18T08:17:12.842Z,101131.25
2023-02-18T08:19:39.832Z,101130.97
2023-02-18T08:22:06.886Z,101123.13
2023-02-18T08:24:33.785Z,101109.72
2023-02-18T08:27:02.141Z,101110.63
2023-02-18T08:29:30.111Z,101113.88
2023-02-18T08:31:58.032Z,101104.75
2023-02-18T08:34:25.773Z,101102.91
2023-02-18T08:36:52.709Z,101106.81
2023-02-18T08:39:19.694Z,101097.38
2023-02-18T08:41:46.670Z,101092.59
2023-02-18T08:44:14.962Z,101089.06
2023-02-18T08:46:41.899Z,101078.63
2023-02-18T08:49:08.875Z,101086.25
2023-02-18T08:51:36.200Z,101082.28
2023-02-18T08:54:03.584Z,101077.84
2023-02-18T08:56:32.350Z,101078.13
2023-02-18T08:58:59.604Z,101076.13
2023-02-18T09:01:28.268Z,101076.22
2023-02-18T09:03:55.319Z,101077.00
2023-02-18T09:06:22.390Z,101066.03
2023-02-18T09:08:49.435Z,101073.59
2023-02-18T09:11:18.480Z,101066.50
2023-02-18T09:13:45.976Z,101065.69
2023-02-18T09:16:18.278Z,101065.94
2023-02-18T09:18:48.083Z,101065.78
2023-02-18T09:21:18.927Z,101051.72
2023-02-18T09:23:46.255Z,101057.25
2023-02-18T09:26:24.883Z,101047.09
2023-02-18T09:28:54.245Z,101056.06
2023-02-18T09:31:24.504Z,101059.34
2023-02-18T09:33:59.516Z,101045.06
2023-02-18T09:36:27.597Z,101059.59
2023-02-18T09:38:55.296Z,101053.28
2023-02-18T09:41:35.000Z,101047.97
2023-02-18T09:44:09.548Z,101044.94
2023-02-18T09:46:40.620Z,101031.66
2023-02-18T09:49:18.734Z,101027.97
2023-02-18T09:51:46.730Z,101023.09
2023-02-18T09:54:18.828Z,101032.06
2023-02-18T09:56:47.735Z,101041.06
2023-02-18T09:59:19.112Z,101047.59
2023-02-18T10:01:51.936Z,101042.28
2023-02-18T10:04:27.744Z,101052.25
2023-02-18T10:06:55.101Z,101048.72
2023-02-18T10:09:28.269Z,101050.38
2023-02-18T10:12:02.471Z,101042.06
2023-02-18T10:14:29.913Z,101045.94
2023-02-18T10:17:00.153Z,101036.16
2023-02-18T10:19:36.087Z,101057.16
2023-02-18T10:22:06.697Z,101037.38
2023-02-18T10:24:39.036Z,101048.38
2023-02-18T10:27:09.009Z,101029.16
2023-02-18T10:29:36.705Z,101041.81
2023-02-18T10:32:16.629Z,101032.19
2023-02-18T10:34:51.886Z,101047.50
2023-02-18T10:37:46.539Z,101043.00
2023-02-18T10:40:23.619Z,101043.41
2023-02-18T10:43:07.025Z,101050.94
2023-02-18T10:45:45.780Z,101036.03
2023-02-18T10:48:45.518Z,101040.34
2023-02-18T10:51:19.302Z,101040.97
2023-02-18T10:53:49.431Z,101040.97
2023-02-18T10:56:38.855Z,101036.03
2023-02-18T10:59:13.581Z,101019.13
2023-02-18T11:01:43.519Z,101033.22
2023-02-18T11:04:18.107Z,101020.97
2023-02-18T11:06:48.993Z,101021.84
2023-02-18T11:09:31.849Z,101014.50
2023-02-18T11:12:09.202Z,101031.47
2023-02-18T11:14:43.332Z,101037.38
2023-02-18T11:17:25.881Z,101017.75
2023-02-18T11:19:57.557Z,101015.16
2023-02-18T11:22:32.967Z,101022.28
2023-02-18T11:25:02.622Z,101017.97
2023-02-18T11:27:39.378Z,101040.25
2023-02-18T11:30:19.588Z,101019.03
2023-02-18T11:32:49.858Z,101031.25
2023-02-18T11:35:22.330Z,101029.63
2023-02-18T11:37:51.825Z,101039.00
2023-02-18T11:40:27.524Z,101047.78
2023-02-18T11:43:06.046Z,101049.19
2023-02-18T11:45:35.279Z,101044.28
2023-02-18T11:48:08.672Z,101036.97
2023-02-18T11:50:36.348Z,101059.44
2023-02-18T11:53:28.939Z,101053.28
2023-02-18T11:56:00.761Z,101051.25
2023-02-18T11:58:40.997Z,101036.53
2023-02-18T12:01:18.025Z,101044.72
2023-02-18T12:03:53.829Z,101047.16
2023-02-18T12:06:28.331Z,101054.91
2023-02-18T12:09:05.557Z,101058.59
2023-02-18T12:11:41.297Z,101057.16
2023-02-18T12:14:17.511Z,101057.41
2023-02-18T12:17:06.341Z,101055.97
2023-02-18T12:19:53.940Z,101049.44
2023-02-18T12:22:35.860Z,101049.50
2023-02-18T12:25:23.699Z,101044.38
2023-02-18T12:28:12.050Z,101052.97
2023-02-18T12:31:10.421Z,101053.59
2023-02-18T12:34:01.869Z,101055.81
2023-02-18T12:36:51.796Z,101064.44
2023-02-18T12:39:45.234Z,101067.09
2023-02-18T12:42:42.103Z,101059.50
2023-02-18T12:45:37.672Z,101074.22
2023-02-18T12:48:52.926Z,101075.44
2023-02-18T12:51:36.271Z,101077.03
2023-02-18T12:54:27.660Z,101086.03
2023-02-18T12:57:16.073Z,101081.53
2023-02-18T13:00:22.633Z,101080.09
2023-02-18T13:03:27.530Z,101094.19
2023-02-18T13:06:07.264Z,101091.16
2023-02-18T13:08:54.728Z,101086.44
2023-02-18T13:11:38.998Z,101092.19
2023-02-18T13:14:16.199Z,101091.75
2023-02-18T13:16:50.930Z,101103.22
2023-02-18T13:19:24.397Z,101088.56
2023-02-18T13:21:58.334Z,101099.19
2023-02-18T13:24:34.105Z,101093.69
2023-02-18T13:27:15.883Z,101102.50
2023-02-18T13:30:08.260Z,101100.44
2023-02-18T13:32:48.416Z,101098.41
2023-02-18T13:35:26.037Z,101102.28
2023-02-18T13:38:24.074Z,101110.66
2023-02-18T13:40:51.870Z,101107.41
2023-02-18T13:43:30.076Z,101102.50
2023-02-18T13:46:10.365Z,101112.09
2023-02-18T13:48:46.545Z,101112.09
2023-02-18T13:51:18.092Z,101110.06
2023-02-18T13:53:52.445Z,101124.97
2023-02-18T13:56:28.551Z,101125.19
2023-02-18T13:59:02.849Z,101118.03
2023-02-18T14:01:41.487Z,101128.66
2023-02-18T14:04:54.482Z,101119.47
2023-02-18T14:07:49.054Z,101132.75
2023-02-18T14:10:35.313Z,101124.13
2023-02-18T14:13:24.655Z,101129.44
2023-02-18T14:16:01.313Z,101131.50
2023-02-18T14:18:52.602Z,101140.06
2023-02-18T14:21:42.117Z,101155.81
2023-02-18T14:24:12.273Z,101152.13
2023-02-18T14:26:49.655Z,101165.81
2023-02-18T14:29:28.786Z,101156.41
2023-02-18T14:32:01.674Z,101165.19
2023-02-18T14:35:12.937Z,101160.69
2023-02-18T14:38:27.848Z,101173.56
2023-02-18T14:41:22.409Z,101180.72
2023-02-18T14:44:17.630Z,101171.94
2023-02-18T14:47:06.183Z,101179.69
2023-02-18T14:49:42.780Z,101183.78
2023-02-18T14:52:23.217Z,101179.72
2023-02-18T14:54:51.878Z,101177.09
2023-02-18T14:57:28.679Z,101179.75
2023-02-18T15:00:02.195Z,101184.25
2023-02-18T15:02:30.967Z,101184.69
2023-02-18T15:05:14.609Z,101187.72
2023-02-18T15:07:41.552Z,101187.53
2023-02-18T15:10:16.148Z,101195.91
2023-02-18T15:12:43.299Z,101198.56
2023-02-18T15:15:16.056Z,101203.28
2023-02-18T15:17:49.436Z,101207.97
2023-02-18T15:20:17.662Z,101213.28
2023-02-18T15:22:44.914Z,101212.63
2023-02-18T15:25:14.737Z,101212.03
2023-02-18T15:27:45.784Z,101222.47
2023-02-18T15:30:26.953Z,101232.47
2023-02-18T15:32:56.602Z,101233.28
2023-02-18T15:35:29.134Z,101231.66
2023-02-18T15:37:59.556Z,101230.00
2023-02-18T15:40:32.191Z,101239.81
2023-02-18T15:43:03.934Z,101240.63
2023-02-18T15:45:35.559Z,101235.31
2023-02-18T15:48:04.679Z,101248.00
2023-02-18T15:50:36.100Z,101237.97
2023-02-18T15:53:07.506Z,101245.09
2023-02-18T15:55:40.323Z,101240.00
2023-02-18T15:58:15.257Z,101249.19
2023-02-18T16:00:50.003Z,101247.94
2023-02-18T16:03:23.203Z,101252.00
2023-02-18T16:06:07.031Z,101261.41
2023-02-18T16:08:34.137Z,101270.78
2023-02-18T16:11:07.430Z,101272.38
2023-02-18T16:13:37.080Z,101273.59
2023-02-18T16:16:05.680Z,101273.13
2023-02-18T16:18:39.204Z,101281.06
2023-02-18T16:21:24.428Z,101285.34
2023-02-18T16:23:57.793Z,101285.34
2023-02-18T16:26:31.226Z,101293.88
2023-02-18T16:29:14.114Z,101297.53
2023-02-18T16:31:41.766Z,101290.56
2023-02-18T16:34:08.993Z,101293.81
2023-02-18T16:36:35.921Z,101312.13
2023-02-18T16:39:03.465Z,101314.53
2023-02-18T16:41:31.790Z,101309.59
2023-02-18T16:43:58.897Z,101318.97
2023-02-18T16:46:25.947Z,101311.34
2023-02-18T16:48:55.773Z,101314.41
2023-02-18T16:51:29.600Z,101321.75
2023-02-18T16:53:56.899Z,101309.47
2023-02-18T16:56:26.929Z,101314.59
2023-02-18T16:58:55.195Z,101323.38
2023-02-18T17:01:27.606Z,101329.72
2023-02-18T17:03:55.501Z,101326.22
2023-02-18T17:06:22.964Z,101340.88
2023-02-18T17:08:50.593Z,101344.50
2023-02-18T17:11:25.772Z,101353.38
2023-02-18T17:13:55.634Z,101356.63
2023-02-18T17:16:22.906Z,101371.22
2023-02-18T17:18:50.142Z,101359.38
2023-02-18T17:21:20.087Z,101373.81
2023-02-18T17:23:48.804Z,101368.72
2023-02-18T17:26:19.810Z,101367.06
2023-02-18T17:28:47.482Z,101387.28
2023-02-18T17:31:20.527Z,101386.81
2023-02-18T17:33:47.818Z,101388.63
2023-02-18T17:36:14.914Z,101389.47
2023-02-18T17:38:42.172Z,101393.78
2023-02-18T17:41:12.839Z,101399.25
2023-02-18T17:43:40.501Z,101395.97
2023-02-18T17:46:13.318Z,101403.28
2023-02-18T17:48:43.161Z,101409.63
2023-02-18T17:51:24.169Z,101419.19
2023-02-18T17:53:51.348Z,101420.44
2023-02-18T17:56:18.613Z,101420.44
2023-02-18T17:58:46.417Z,101431.88
2023-02-18T18:01:13.483Z,101423.09
2023-02-18T18:03:41.718Z,101426.16
2023-02-18T18:06:16.417Z,101425.53
2023-02-18T18:08:43.914Z,101439.41
2023-02-18T18:11:16.580Z,101430.63
2023-02-18T18:13:45.630Z,101442.88
2023-02-18T18:16:16.609Z,101445.69
2023-02-18T18:18:45.416Z,101442.06
2023-02-18T18:21:21.577Z,101445.34
2023-02-18T18:23:49.848Z,101443.31
2023-02-18T18:26:17.164Z,101446.25
2023-02-18T18:28:44.294Z,101451.53
2023-02-18T18:31:15.583Z,101452.53
2023-02-18T18:33:48.687Z,101458.22
2023-02-18T18:36:16.563Z,101470.19
2023-02-18T18:38:43.634Z,101474.69
2023-02-18T18:41:14.797Z,101471.38
2023-02-18T18:43:41.767Z,101471.38
2023-02-18T18:46:08.869Z,101474.22
2023-02-18T18:48:35.883Z,101484.00
2023-02-18T18:51:05.574Z,101478.91
2023-02-18T18:53:35.555Z,101477.06
2023-02-18T18:56:06.354Z,101473.78
2023-02-18T18:58:33.879Z,101478.25
2023-02-18T19:01:05.454Z,101495.00
2023-02-18T19:03:38.177Z,101494.81
2023-02-18T19:06:06.720Z,101499.06
2023-02-18T19:08:34.145Z,101491.31
2023-02-18T19:11:03.299Z,101490.50
2023-02-18T19:13:33.683Z,101496.19
2023-02-18T19:16:06.202Z,101488.75
2023-02-18T19:18:33.639Z,101490.97
2023-02-18T19:21:04.690Z,101500.47
2023-02-18T19:23:34.019Z,101505.31
2023-02-18T19:26:01.112Z,101505.88
2023-02-18T19:28:28.342Z,101506.41
2023-02-18T19:30:55.498Z,101514.88
2023-02-18T19:33:22.744Z,101515.06
2023-02-18T19:35:49.732Z,101509.13
2023-02-18T19:38:18.226Z,101503.84
2023-02-18T19:40:46.747Z,101507.47
2023-02-18T19:43:14.233Z,101504.19
2023-02-18T19:45:43.467Z,101504.19
2023-02-18T19:48:12.025Z,101496.06
2023-02-18T19:50:41.725Z,101491.97
2023-02-18T19:53:09.916Z,101491.13
2023-02-18T19:55:37.134Z,101493.16
2023-02-18T19:58:05.880Z,101496.44
2023-02-18T20:00:32.955Z,101496.63
2023-02-18T20:02:59.901Z,101496.44
2023-02-18T20:05:27.309Z,101498.06
2023-02-18T20:07:54.242Z,101498.59
2023-02-18T20:10:22.417Z,101498.16
2023-02-18T20:12:52.845Z,101500.34
2023-02-18T20:15:22.311Z,101506.81
2023-02-18T20:17:49.798Z,101497.41
2023-02-18T20:20:17.573Z,101498.41
2023-02-18T20:22:45.065Z,101502.84
2023-02-18T20:25:12.038Z,101511.66
2023-02-18T20:27:45.276Z,101498.75
2023-02-18T20:30:22.968Z,101499.75
2023-02-18T20:32:49.984Z,101505.06
2023-02-18T20:35:16.992Z,101506.53
2023-02-18T20:37:43.900Z,101492.44
2023-02-18T20:40:11.209Z,101503.72
2023-02-18T20:42:38.824Z,101494.75
2023-02-18T20:45:06.476Z,101493.75
2023-02-18T20:47:34.945Z,101500.03
2023-02-18T20:50:01.839Z,101502.84
2023-02-18T20:52:28.851Z,101500.41
2023-02-18T20:54:55.769Z,101504.22
2023-02-18T20:57:22.901Z,101490.16
2023-02-18T20:59:49.820Z,101490.16
2023-02-18T21:02:17.550Z,101485.06
2023-02-18T21:04:46.050Z,101489.50
2023-02-18T21:07:12.968Z,101495.81
2023-02-18T21:09:39.907Z,101490.88
2023-02-18T21:12:07.043Z,101487.75
2023-02-18T21:14:33.965Z,101492.22
2023-02-18T21:17:00.943Z,101494.22
2023-02-18T21:19:27.994Z,101482.38
2023-02-18T21:21:56.884Z,101489.66
2023-02-18T21:24:23.818Z,101481.06
2023-02-18T21:26:50.812Z,101481.44
2023-02-18T21:29:17.770Z,101483.44
2023-02-18T21:31:45.011Z,101481.78
2023-02-18T21:34:14.948Z,101467.91
2023-02-18T21:36:43.093Z,101469.09
2023-02-18T21:39:11.842Z,101475.75
2023-02-18T21:41:40.958Z,101470.59
2023-02-18T21:44:08.329Z,101467.31
2023-02-18T21:46:36.553Z,101467.66
2023-02-18T21:49:09.747Z,101472.97
2023-02-18T21:51:59.472Z,101469.53
2023-02-18T21:54:31.290Z,101457.47
2023-02-18T21:57:00.914Z,101462.91
2023-02-18T21:59:30.227Z,101459.81
2023-02-18T22:02:01.838Z,101469.91
2023-02-18T22:04:31.611Z,101466.19
2023-02-18T22:06:59.042Z,101481.56
2023-02-18T22:09:27.605Z,101475.81
2023-02-18T22:11:54.565Z,101471.50
2023-02-18T22:14:22.098Z,101467.56
2023-02-18T22:16:49.202Z,101456.50
2023-02-18T22:19:16.224Z,101457.69
2023-02-18T22:21:44.217Z,101456.41
2023-02-18T22:24:13.597Z,101462.03
2023-02-18T22:26:43.817Z,101456.75
2023-02-18T22:29:12.128Z,101458.75
2023-02-18T22:31:39.669Z,101458.94
2023-02-18T22:34:06.796Z,101459.09
2023-02-18T22:36:33.982Z,101453.00
2023-02-18T22:39:02.686Z,101443.22
2023-02-18T22:41:31.707Z,101436.75
2023-02-18T22:44:03.598Z,101433.97
2023-02-18T22:46:33.028Z,101428.28
2023-02-18T22:49:00.825Z,101431.56
2023-02-18T22:51:31.287Z,101421.00
2023-02-18T22:54:00.417Z,101419.38
2023-02-18T22:56:29.246Z,101418.72
2023-02-18T22:58:59.963Z,101424.66
2023-02-18T23:01:31.020Z,101410.81
2023-02-18T23:04:03.770Z,101411.63
2023-02-18T23:06:30.799Z,101412.91
2023-02-18T23:08:57.955Z,101409.75
2023-02-18T23:11:25.510Z,101406.91
2023-02-18T23:14:13.293Z,101401.63
2023-02-18T23:17:00.815Z,101390.47
2023-02-18T23:19:31.312Z,101399.13
2023-02-18T23:21:58.481Z,101397.03
2023-02-18T23:24:25.515Z,101387.16
2023-02-18T23:26:52.816Z,101385.59
2023-02-18T23:29:20.364Z,101390.41
2023-02-18T23:31:48.779Z,101383.50
2023-02-18T23:34:17.217Z,101372.47
2023-02-18T23:36:45.871Z,101372.81
2023-02-18T23:39:16.849Z,101374.16
2023-02-18T23:41:44.194Z,101374.50
2023-02-18T23:44:14.389Z,101377.47
2023-02-18T23:46:44.412Z,101370.56
2023-02-18T23:49:15.457Z,101372.56
2023-02-18T23:51:43.074Z,101374.03
2023-02-18T23:54:11.017Z,101384.25
2023-02-18T23:56:38.067Z,101373.84
2023-02-18T23:59:06.328Z,101378.16
